Time;durP1;ratioP1;P1;durP2;ratioP2;P2;SDS_P1;SDS_P2;PMS_P1;PMS_P2;Temp;Humidity;BMP_temperature;BMP_pressure;BME280_temperature;BME280_humidity;BME280_pressure;Samples;Min_cycle;Max_cycle;Signal;HPM_P1;HPM_P2
2023/09/17 00:00:07;;;;;;;106.18;56.97;;;21.70;89.50;;;;;;4974163;28;85638;-80
2023/09/17 00:02:34;;;;;;;105.43;56.65;;;21.70;90.30;;;;;;4973017;28;87145;-77
2023/09/17 00:04:59;;;;;;;104.97;56.20;;;21.70;89.20;;;;;;4976706;28;85082;-78
2023/09/17 00:07:25;;;;;;;104.88;56.42;;;21.70;89.30;;;;;;4972150;28;85447;-75
2023/09/17 00:09:50;;;;;;;105.10;56.65;;;21.70;89.10;;;;;;4976504;28;85570;-79
2023/09/17 00:12:16;;;;;;;105.97;56.63;;;21.70;89.40;;;;;;4970186;28;85106;-79
2023/09/17 00:14:42;;;;;;;104.63;55.80;;;21.60;89.30;;;;;;4979043;28;85631;-79
2023/09/17 00:17:08;;;;;;;104.22;55.95;;;21.60;88.80;;;;;;4975385;28;85884;-78
2023/09/17 00:19:33;;;;;;;106.53;56.35;;;21.60;89.50;;;;;;4978574;28;85042;-76
2023/09/17 00:22:00;;;;;;;105.28;55.55;;;21.60;89.00;;;;;;4978873;28;85548;-79
2023/09/17 00:24:26;;;;;;;105.28;56.22;;;21.60;89.30;;;;;;4980655;28;85759;-79
2023/09/17 00:26:52;;;;;;;103.80;55.72;;;21.60;89.40;;;;;;4974166;28;86914;-79
2023/09/17 00:29:18;;;;;;;105.00;56.25;;;21.60;89.70;;;;;;4981150;28;85852;-79
2023/09/17 00:31:43;;;;;;;105.05;56.00;;;21.60;89.70;;;;;;4978935;28;85877;-79
2023/09/17 00:34:09;;;;;;;105.38;56.10;;;21.50;89.30;;;;;;4970492;28;86840;-77
2023/09/17 00:36:34;;;;;;;106.10;56.60;;;21.60;89.60;;;;;;4977297;28;85202;-76
2023/09/17 00:39:00;;;;;;;103.97;55.60;;;21.60;90.10;;;;;;4972535;28;85433;-77
2023/09/17 00:41:26;;;;;;;104.78;56.05;;;21.60;89.30;;;;;;4977648;28;86065;-74
2023/09/17 00:43:51;;;;;;;104.45;56.10;;;21.50;89.90;;;;;;4970869;28;85580;-79
2023/09/17 00:46:19;;;;;;;104.47;55.90;;;21.50;90.00;;;;;;4975486;28;85236;-78
2023/09/17 00:48:45;;;;;;;104.90;56.15;;;21.50;89.50;;;;;;4974913;28;86292;-79
2023/09/17 00:51:10;;;;;;;105.13;56.33;;;21.50;89.50;;;;;;4975286;28;88272;-79
2023/09/17 00:53:36;;;;;;;104.63;55.92;;;21.50;90.00;;;;;;4971507;28;86780;-76
2023/09/17 00:56:02;;;;;;;104.50;55.88;;;21.50;90.00;;;;;;4980619;28;85439;-77
2023/09/17 00:58:29;;;;;;;104.78;56.40;;;21.50;89.90;;;;;;4973267;28;86991;-79
2023/09/17 01:00:58;;;;;;;103.93;55.53;;;21.50;90.20;;;;;;4978456;28;85186;-79
2023/09/17 01:03:27;;;;;;;104.10;55.95;;;21.50;89.60;;;;;;4966328;28;85764;-78
2023/09/17 01:05:54;;;;;;;105.03;56.40;;;21.50;89.90;;;;;;4971285;28;89204;-77
2023/09/17 01:08:20;;;;;;;106.03;55.90;;;21.50;90.70;;;;;;4978195;28;85517;-76
2023/09/17 01:10:48;;;;;;;104.20;56.13;;;21.50;90.50;;;;;;4974317;28;87608;-79
2023/09/17 01:13:14;;;;;;;104.60;56.42;;;21.50;89.90;;;;;;4978009;28;86286;-79
2023/09/17 01:15:40;;;;;;;104.13;55.63;;;21.50;90.00;;;;;;4972399;28;85663;-79
2023/09/17 01:18:09;;;;;;;104.47;56.00;;;21.40;90.20;;;;;;4978256;28;86285;-79
2023/09/17 01:21:07;;;;;;;103.32;55.38;;;21.40;90.00;;;;;;4968415;28;88347;-78
2023/09/17 01:23:47;;;;;;;104.15;55.70;;;21.40;89.90;;;;;;4967473;28;87115;-78
2023/09/17 01:26:26;;;;;;;103.60;55.45;;;21.40;89.90;;;;;;4978862;28;85305;-77
2023/09/17 01:28:56;;;;;;;102.90;55.00;;;21.40;89.80;;;;;;4981847;28;86590;-78
2023/09/17 01:31:23;;;;;;;103.65;55.38;;;21.40;90.10;;;;;;4972560;28;86758;-79
2023/09/17 01:33:49;;;;;;;103.97;55.80;;;21.40;90.00;;;;;;4979089;28;85118;-78
2023/09/17 01:36:20;;;;;;;103.65;55.75;;;21.40;90.00;;;;;;4971505;28;85758;-78
2023/09/17 01:38:49;;;;;;;102.75;55.13;;;21.40;90.00;;;;;;4977050;28;85540;-78
2023/09/17 01:41:18;;;;;;;102.50;54.97;;;21.40;89.90;;;;;;4973087;28;84984;-78
2023/09/17 01:43:44;;;;;;;103.20;55.35;;;21.40;90.00;;;;;;4977042;28;86959;-78
2023/09/17 01:46:10;;;;;;;103.82;55.50;;;21.40;90.00;;;;;;4974911;28;85057;-78
2023/09/17 01:48:38;;;;;;;103.50;55.33;;;21.40;89.90;;;;;;4972176;28;86712;-78
2023/09/17 01:51:04;;;;;;;103.15;54.90;;;21.30;89.90;;;;;;4977425;28;85798;-78
2023/09/17 01:53:31;;;;;;;104.53;55.95;;;21.40;90.00;;;;;;4973840;28;85803;-78
2023/09/17 01:55:56;;;;;;;103.65;55.22;;;21.40;90.00;;;;;;4980927;28;84238;-78
2023/09/17 01:58:24;;;;;;;103.40;55.75;;;21.40;90.10;;;;;;4969693;28;86537;-78
2023/09/17 02:00:52;;;;;;;103.30;55.25;;;21.40;90.00;;;;;;4977378;28;85241;-77
2023/09/17 02:03:18;;;;;;;103.70;55.97;;;21.30;89.90;;;;;;4968792;28;85608;-78
2023/09/17 02:05:44;;;;;;;104.70;55.75;;;21.30;90.00;;;;;;4978896;28;85324;-78
2023/09/17 02:08:09;;;;;;;104.82;56.25;;;21.30;90.00;;;;;;4970775;28;85100;-77
2023/09/17 02:10:35;;;;;;;103.43;55.80;;;21.30;90.00;;;;;;4973011;28;85420;-74
2023/09/17 02:13:01;;;;;;;103.97;56.13;;;21.40;90.00;;;;;;4973793;28;85101;-77
2023/09/17 02:15:27;;;;;;;106.20;56.40;;;21.40;90.20;;;;;;4974189;28;86939;-77
2023/09/17 02:17:53;;;;;;;103.82;55.85;;;21.40;90.20;;;;;;4968724;28;86962;-78
2023/09/17 02:20:18;;;;;;;102.97;55.42;;;21.40;90.10;;;;;;4971986;28;85462;-77
2023/09/17 02:22:45;;;;;;;103.60;55.75;;;21.40;90.00;;;;;;4983232;28;85958;-76
2023/09/17 02:25:11;;;;;;;103.63;55.83;;;21.30;89.90;;;;;;4969632;28;85439;-76
2023/09/17 02:27:38;;;;;;;104.05;56.03;;;21.30;90.10;;;;;;4976753;28;86307;-79
2023/09/17 02:30:05;;;;;;;104.43;55.85;;;21.30;90.00;;;;;;4965408;28;86479;-78
2023/09/17 02:32:31;;;;;;;103.97;55.80;;;21.30;90.00;;;;;;4971120;28;85150;-75
2023/09/17 02:34:57;;;;;;;105.40;56.85;;;21.30;89.70;;;;;;4973447;28;85447;-76
2023/09/17 02:37:23;;;;;;;103.55;56.05;;;21.30;90.20;;;;;;4969254;28;85422;-72
2023/09/17 02:39:49;;;;;;;104.95;56.13;;;21.30;90.20;;;;;;4972085;28;86564;-75
2023/09/17 02:42:15;;;;;;;103.50;55.95;;;21.30;89.90;;;;;;4966885;28;87910;-79
2023/09/17 02:44:40;;;;;;;104.40;56.60;;;21.30;90.00;;;;;;4977634;28;85054;-78
2023/09/17 02:47:06;;;;;;;104.50;56.75;;;21.30;90.20;;;;;;4972920;28;85079;-78
2023/09/17 02:49:32;;;;;;;104.10;56.40;;;21.30;90.10;;;;;;4975443;28;85604;-77
2023/09/17 02:51:58;;;;;;;103.95;56.00;;;21.30;90.30;;;;;;4972163;28;85709;-78
2023/09/17 02:54:24;;;;;;;104.13;55.85;;;21.30;90.20;;;;;;4971050;28;85259;-78
2023/09/17 02:56:49;;;;;;;103.47;55.70;;;21.30;90.30;;;;;;4972360;28;86955;-77
2023/09/17 02:59:15;;;;;;;103.35;55.92;;;21.30;90.10;;;;;;4976279;28;86365;-79
2023/09/17 03:01:41;;;;;;;105.18;56.30;;;21.30;90.10;;;;;;4968718;28;85012;-78
2023/09/17 03:04:07;;;;;;;105.32;56.35;;;21.30;90.30;;;;;;4971254;28;85278;-78
2023/09/17 03:06:36;;;;;;;104.18;56.28;;;21.30;90.10;;;;;;4966400;28;85664;-78
2023/09/17 03:09:09;;;;;;;105.10;56.13;;;21.30;90.20;;;;;;4970133;28;85228;-76
2023/09/17 03:11:35;;;;;;;105.00;56.83;;;21.30;90.10;;;;;;4974688;28;86073;-77
2023/09/17 03:14:00;;;;;;;105.07;56.78;;;21.20;90.00;;;;;;4972442;28;85479;-78
2023/09/17 03:16:26;;;;;;;103.65;55.88;;;21.30;90.20;;;;;;4973414;28;85160;-77
2023/09/17 03:18:51;;;;;;;103.93;56.25;;;21.30;90.40;;;;;;4973797;28;85955;-77
2023/09/17 03:21:18;;;;;;;103.75;56.22;;;21.30;90.10;;;;;;4972591;28;85963;-78
2023/09/17 03:23:43;;;;;;;103.38;56.03;;;21.30;90.30;;;;;;4973880;28;85241;-77
2023/09/17 03:26:10;;;;;;;104.43;56.33;;;21.30;90.40;;;;;;4971795;28;89827;-77
2023/09/17 03:28:35;;;;;;;103.30;56.15;;;21.30;90.30;;;;;;4969011;28;86733;-78
2023/09/17 03:31:01;;;;;;;105.43;57.03;;;21.30;90.10;;;;;;4973439;28;85151;-78
2023/09/17 03:33:27;;;;;;;104.72;57.08;;;21.30;90.30;;;;;;4972217;28;85690;-76
2023/09/17 03:35:53;;;;;;;104.18;56.75;;;21.20;90.10;;;;;;4965298;28;84873;-76
2023/09/17 03:38:19;;;;;;;103.28;55.95;;;21.20;90.10;;;;;;4973455;28;85948;-76
2023/09/17 03:40:45;;;;;;;104.15;56.38;;;21.20;90.40;;;;;;4970370;28;92349;-78
2023/09/17 03:43:11;;;;;;;103.97;56.67;;;21.20;90.40;;;;;;4970373;28;86263;-78
2023/09/17 03:45:36;;;;;;;104.55;56.60;;;21.20;90.30;;;;;;4966899;28;85428;-78
2023/09/17 03:48:04;;;;;;;104.75;56.65;;;21.20;90.30;;;;;;4971020;28;88518;-75
2023/09/17 03:50:32;;;;;;;104.28;56.47;;;21.20;90.40;;;;;;4971598;28;86455;-76
2023/09/17 03:53:02;;;;;;;104.60;56.42;;;21.20;90.30;;;;;;4978941;28;90049;-77
2023/09/17 03:55:28;;;;;;;104.45;56.47;;;21.20;90.20;;;;;;4971203;28;85240;-78
2023/09/17 03:57:57;;;;;;;105.70;57.25;;;21.20;90.40;;;;;;4972291;28;85561;-75
2023/09/17 04:00:23;;;;;;;104.80;56.65;;;21.20;90.20;;;;;;4974086;28;86449;-78
2023/09/17 04:02:49;;;;;;;105.55;57.22;;;21.20;90.40;;;;;;4969488;28;86029;-76
2023/09/17 04:05:16;;;;;;;105.10;57.28;;;21.20;90.20;;;;;;4977388;28;86440;-78
2023/09/17 04:07:45;;;;;;;105.55;57.47;;;21.20;90.20;;;;;;4969256;28;85047;-78
2023/09/17 04:10:12;;;;;;;104.35;57.03;;;21.20;90.40;;;;;;4970791;28;85789;-76
2023/09/17 04:12:38;;;;;;;105.20;57.47;;;21.20;90.20;;;;;;4965770;28;87410;-78
2023/09/17 04:15:13;;;;;;;104.20;56.92;;;21.20;90.50;;;;;;4979812;28;85837;-77
2023/09/17 04:17:39;;;;;;;104.18;56.83;;;21.20;90.30;;;;;;4970579;28;87015;-75
2023/09/17 04:20:14;;;;;;;105.68;57.58;;;21.20;90.20;;;;;;4969963;28;88233;-77
2023/09/17 04:22:41;;;;;;;105.63;58.20;;;21.20;90.20;;;;;;4973680;28;85126;-77
2023/09/17 04:25:09;;;;;;;105.38;57.50;;;21.20;90.30;;;;;;4969723;28;86114;-78
2023/09/17 04:27:34;;;;;;;105.60;57.85;;;21.20;90.50;;;;;;4973936;28;86503;-78
2023/09/17 04:30:00;;;;;;;105.75;57.83;;;21.20;90.20;;;;;;4965473;28;85947;-76
2023/09/17 04:32:25;;;;;;;105.20;57.33;;;21.20;90.20;;;;;;4977146;28;85637;-76
2023/09/17 04:34:52;;;;;;;106.35;57.72;;;21.20;90.30;;;;;;4974597;28;85976;-78
2023/09/17 04:37:19;;;;;;;106.53;58.10;;;21.20;90.40;;;;;;4975430;28;85951;-74
2023/09/17 04:39:46;;;;;;;106.72;58.25;;;21.20;90.20;;;;;;4975005;28;87014;-76
2023/09/17 04:42:12;;;;;;;106.57;57.78;;;21.20;90.50;;;;;;4973163;28;86068;-78
2023/09/17 04:44:38;;;;;;;107.40;58.65;;;21.20;90.50;;;;;;4977066;28;85199;-78
2023/09/17 04:47:03;;;;;;;105.07;56.83;;;21.20;90.40;;;;;;4970413;28;88218;-78
2023/09/17 04:49:31;;;;;;;105.47;56.97;;;21.20;90.40;;;;;;4977892;28;85466;-76
2023/09/17 04:51:57;;;;;;;106.88;58.53;;;21.20;90.40;;;;;;4972513;28;85651;-77
2023/09/17 04:54:23;;;;;;;105.35;57.45;;;21.20;90.30;;;;;;4975575;28;89632;-79
2023/09/17 04:56:49;;;;;;;106.35;58.78;;;21.20;90.60;;;;;;4972148;28;84687;-76
2023/09/17 04:59:15;;;;;;;105.93;58.15;;;21.20;90.50;;;;;;4978864;28;88204;-74
2023/09/17 05:01:41;;;;;;;105.75;57.22;;;21.20;90.70;;;;;;4968204;28;86561;-78
2023/09/17 05:04:07;;;;;;;106.18;57.85;;;21.20;90.60;;;;;;4972540;28;89474;-77
2023/09/17 05:06:32;;;;;;;106.45;59.05;;;21.20;90.50;;;;;;4971135;28;85286;-77
2023/09/17 05:08:58;;;;;;;105.22;58.33;;;21.20;90.40;;;;;;4972850;28;85112;-76
2023/09/17 05:11:24;;;;;;;105.60;57.88;;;21.20;90.40;;;;;;4987855;28;85885;-77
2023/09/17 05:13:49;;;;;;;106.75;58.67;;;21.20;90.30;;;;;;4967752;28;87139;-77
2023/09/17 05:16:15;;;;;;;106.13;57.97;;;21.20;90.40;;;;;;4971920;28;84793;-77
2023/09/17 05:18:41;;;;;;;105.28;58.20;;;21.20;90.40;;;;;;4964498;28;86380;-77
2023/09/17 05:21:06;;;;;;;105.18;57.33;;;21.20;90.50;;;;;;4976615;28;87371;-79
2023/09/17 05:23:32;;;;;;;106.22;57.35;;;21.20;90.60;;;;;;4971270;28;85392;-77
2023/09/17 05:25:57;;;;;;;104.60;57.10;;;21.20;90.50;;;;;;4968654;28;85198;-77
2023/09/17 05:28:25;;;;;;;105.78;57.08;;;21.20;90.50;;;;;;4969402;28;87395;-78
2023/09/17 05:30:55;;;;;;;104.70;56.90;;;21.10;90.60;;;;;;4977472;28;85552;-79
2023/09/17 05:33:21;;;;;;;107.85;58.28;;;21.20;90.60;;;;;;4967590;28;85122;-79
2023/09/17 05:35:47;;;;;;;105.68;58.30;;;21.20;90.50;;;;;;4971012;28;85286;-78
2023/09/17 05:38:13;;;;;;;108.47;59.40;;;21.20;90.40;;;;;;4971567;28;86509;-77
2023/09/17 05:40:38;;;;;;;105.60;58.10;;;21.10;90.60;;;;;;4975403;28;85098;-76
2023/09/17 05:43:04;;;;;;;107.05;57.40;;;21.20;90.50;;;;;;4972817;28;87227;-77
2023/09/17 05:45:30;;;;;;;105.45;57.63;;;21.20;90.60;;;;;;4967452;28;85638;-78
2023/09/17 05:47:55;;;;;;;105.72;57.85;;;21.20;90.70;;;;;;4972921;28;87138;-76
2023/09/17 05:50:21;;;;;;;105.93;58.58;;;21.20;90.60;;;;;;4970705;28;85527;-77
2023/09/17 05:52:46;;;;;;;105.35;57.60;;;21.20;90.30;;;;;;4973605;28;86231;-76
2023/09/17 05:55:12;;;;;;;105.80;58.70;;;21.20;90.40;;;;;;4965398;28;87054;-78
2023/09/17 05:57:38;;;;;;;105.82;58.58;;;21.20;90.60;;;;;;4974695;28;87959;-78
2023/09/17 06:00:04;;;;;;;106.05;58.20;;;21.20;90.50;;;;;;4972012;28;85417;-77
2023/09/17 06:02:31;;;;;;;106.78;58.47;;;21.20;90.70;;;;;;4977601;28;86184;-76
2023/09/17 06:04:56;;;;;;;106.53;57.10;;;21.20;90.90;;;;;;4970733;28;85887;-77
2023/09/17 06:07:22;;;;;;;105.38;58.22;;;21.20;90.50;;;;;;4981794;28;84962;-77
2023/09/17 06:09:48;;;;;;;105.00;58.10;;;21.20;90.60;;;;;;4973003;28;85053;-78
2023/09/17 06:12:15;;;;;;;106.18;58.80;;;21.20;90.60;;;;;;4968982;28;87988;-78
2023/09/17 06:14:41;;;;;;;105.53;57.80;;;21.20;90.30;;;;;;4977712;28;87956;-77
2023/09/17 06:17:06;;;;;;;106.68;58.65;;;21.20;90.50;;;;;;4970684;28;86534;-78
2023/09/17 06:19:33;;;;;;;105.78;58.17;;;21.20;90.70;;;;;;4974011;28;86087;-78
2023/09/17 06:21:59;;;;;;;105.00;57.40;;;21.20;90.60;;;;;;4964623;28;86589;-78
2023/09/17 06:24:25;;;;;;;104.43;57.33;;;21.20;90.50;;;;;;4972697;28;85987;-76
2023/09/17 06:26:50;;;;;;;106.60;58.20;;;21.30;90.60;;;;;;4966930;28;85825;-78
2023/09/17 06:29:16;;;;;;;105.68;57.33;;;21.30;90.60;;;;;;4973447;28;85805;-78
2023/09/17 06:31:42;;;;;;;106.85;57.92;;;21.30;90.40;;;;;;4968686;28;85811;-78
2023/09/17 06:34:09;;;;;;;105.35;57.20;;;21.30;90.60;;;;;;4970986;28;85612;-79
2023/09/17 06:36:36;;;;;;;105.20;56.90;;;21.30;90.60;;;;;;4969877;28;86849;-79
2023/09/17 06:39:03;;;;;;;105.32;57.50;;;21.30;90.50;;;;;;4976657;28;85097;-78
2023/09/17 06:41:28;;;;;;;106.70;58.17;;;21.30;90.40;;;;;;4963631;28;87697;-76
2023/09/17 06:43:54;;;;;;;107.03;59.20;;;21.30;90.30;;;;;;4970421;28;85114;-77
2023/09/17 06:46:23;;;;;;;107.63;59.25;;;21.30;90.30;;;;;;4968741;28;84975;-77
2023/09/17 06:48:48;;;;;;;104.57;57.08;;;21.30;90.40;;;;;;4969833;28;85154;-75
2023/09/17 06:51:14;;;;;;;103.53;56.30;;;21.30;90.40;;;;;;4974168;28;85417;-78
2023/09/17 06:53:40;;;;;;;105.50;57.42;;;21.30;90.40;;;;;;4967595;28;85942;-76
2023/09/17 06:56:08;;;;;;;104.57;57.38;;;21.30;90.20;;;;;;4972990;28;86982;-78
2023/09/17 06:58:34;;;;;;;104.60;57.20;;;21.40;90.20;;;;;;4965918;28;87871;-78
2023/09/17 07:01:00;;;;;;;104.75;57.28;;;21.40;90.30;;;;;;4971623;28;86123;-76
2023/09/17 07:03:25;;;;;;;105.75;57.78;;;21.40;90.10;;;;;;4979648;28;86043;-79
2023/09/17 07:05:51;;;;;;;107.82;58.17;;;21.40;90.10;;;;;;4972198;28;85159;-77
2023/09/17 07:08:17;;;;;;;103.82;56.95;;;21.40;90.10;;;;;;4968276;28;87011;-77
2023/09/17 07:10:44;;;;;;;105.13;57.47;;;21.40;90.10;;;;;;4970628;28;84480;-74
2023/09/17 07:13:10;;;;;;;104.88;56.75;;;21.50;89.60;;;;;;4975634;28;87677;-77
2023/09/17 07:15:36;;;;;;;105.10;56.97;;;21.50;90.00;;;;;;4966548;28;84788;-76
2023/09/17 07:18:02;;;;;;;106.25;56.75;;;21.50;90.10;;;;;;4978786;28;85227;-76
2023/09/17 07:20:27;;;;;;;104.55;56.85;;;21.50;89.60;;;;;;4960930;28;89319;-77
2023/09/17 07:22:53;;;;;;;105.05;57.05;;;21.60;90.10;;;;;;4969184;28;86674;-76
2023/09/17 07:25:18;;;;;;;104.25;56.80;;;21.60;90.00;;;;;;4963183;28;89027;-78
2023/09/17 07:27:44;;;;;;;104.60;56.72;;;21.60;89.80;;;;;;4974271;28;85610;-77
2023/09/17 07:30:10;;;;;;;104.80;56.97;;;21.60;89.40;;;;;;4967257;28;87609;-78
2023/09/17 07:32:36;;;;;;;104.88;56.78;;;21.70;89.90;;;;;;4968788;28;90144;-75
2023/09/17 07:35:02;;;;;;;105.18;57.00;;;21.70;89.00;;;;;;4964191;28;86148;-78
2023/09/17 07:37:28;;;;;;;104.75;56.88;;;21.80;88.90;;;;;;4973999;28;85395;-77
2023/09/17 07:39:58;;;;;;;105.00;56.58;;;21.80;88.50;;;;;;4966227;28;86302;-76
2023/09/17 07:42:23;;;;;;;105.28;57.08;;;21.80;88.60;;;;;;4969912;28;89064;-76
2023/09/17 07:44:49;;;;;;;106.35;56.72;;;21.90;88.60;;;;;;4979613;28;84700;-78
2023/09/17 07:47:16;;;;;;;105.05;57.10;;;21.90;88.70;;;;;;4967001;28;84915;-77
2023/09/17 07:49:42;;;;;;;105.40;56.80;;;22.00;88.40;;;;;;4964983;28;87842;-77
2023/09/17 07:52:07;;;;;;;105.32;57.03;;;22.00;88.30;;;;;;4960112;28;87176;-77
2023/09/17 07:54:39;;;;;;;106.07;57.03;;;22.10;89.30;;;;;;4970471;28;86432;-77
2023/09/17 07:57:12;;;;;;;106.30;57.22;;;22.20;89.10;;;;;;4970090;28;86252;-81
2023/09/17 07:59:38;;;;;;;105.55;56.80;;;22.20;88.40;;;;;;4990799;28;85896;-78
2023/09/17 08:02:03;;;;;;;108.38;59.78;;;22.20;88.40;;;;;;4973447;28;86379;-84
2023/09/17 08:04:29;;;;;;;111.55;60.35;;;22.30;90.60;;;;;;4965173;28;87833;-80
2023/09/17 08:06:56;;;;;;;114.03;61.05;;;22.40;91.00;;;;;;4970634;28;85655;-81
2023/09/17 08:09:22;;;;;;;111.35;60.33;;;22.40;92.10;;;;;;4962362;28;87969;-79
2023/09/17 08:11:49;;;;;;;110.10;59.88;;;22.20;91.00;;;;;;4971511;28;85710;-81
2023/09/17 08:14:15;;;;;;;108.65;59.60;;;22.20;91.60;;;;;;4971663;28;85419;-74
2023/09/17 08:16:40;;;;;;;110.22;59.63;;;22.30;91.30;;;;;;4973236;28;86670;-79
2023/09/17 08:19:06;;;;;;;110.47;59.70;;;22.40;90.90;;;;;;4967915;28;85431;-77
2023/09/17 08:24:02;;;;;;;109.20;59.13;;;22.50;90.40;;;;;;4966419;28;85662;-42
2023/09/17 08:26:28;;;;;;;108.47;59.55;;;22.50;89.00;;;;;;4968582;28;86174;-41
2023/09/17 08:28:58;;;;;;;109.82;59.20;;;22.50;88.60;;;;;;4971761;28;85383;-41
2023/09/17 08:31:25;;;;;;;109.70;59.35;;;22.50;89.50;;;;;;4963232;28;86308;-42
2023/09/17 08:33:54;;;;;;;109.28;59.42;;;22.50;89.70;;;;;;4970708;28;85734;-42
2023/09/17 08:36:21;;;;;;;109.20;60.08;;;22.50;90.10;;;;;;4967199;28;90381;-42
2023/09/17 08:38:49;;;;;;;110.90;59.30;;;22.50;90.80;;;;;;4972417;28;85172;-41
2023/09/17 08:41:18;;;;;;;111.32;59.33;;;22.60;90.20;;;;;;4966729;28;86589;-41
2023/09/17 08:43:45;;;;;;;110.63;59.15;;;22.80;90.40;;;;;;4980662;28;86098;-43
2023/09/17 08:46:11;;;;;;;109.57;59.55;;;22.90;90.60;;;;;;4975378;28;85515;-42
2023/09/17 08:48:37;;;;;;;108.32;58.60;;;22.90;89.70;;;;;;4976785;28;85415;-42
2023/09/17 08:51:04;;;;;;;109.75;59.00;;;23.00;87.60;;;;;;4976394;28;84930;-42
2023/09/17 08:53:38;;;;;;;108.93;58.85;;;22.90;87.30;;;;;;4974506;28;85599;-42
2023/09/17 08:56:06;;;;;;;109.35;59.30;;;23.00;87.40;;;;;;4981252;28;85902;-41
2023/09/17 08:58:39;;;;;;;108.80;59.15;;;23.10;88.60;;;;;;4973340;28;85806;-43
2023/09/17 09:01:10;;;;;;;110.32;59.63;;;23.10;88.60;;;;;;4970135;28;85777;-41
2023/09/17 09:03:37;;;;;;;110.70;59.28;;;23.10;87.00;;;;;;4969352;28;85269;-42
2023/09/17 09:06:03;;;;;;;115.85;60.35;;;23.00;86.80;;;;;;4967068;28;88120;-43
2023/09/17 09:08:31;;;;;;;116.70;62.65;;;23.10;87.00;;;;;;4968492;28;87490;-43
2023/09/17 09:10:57;;;;;;;116.10;62.40;;;23.00;88.50;;;;;;4947869;28;86727;-44
2023/09/17 09:13:24;;;;;;;122.47;65.65;;;23.00;88.80;;;;;;4974183;28;85273;-43
2023/09/17 09:15:50;;;;;;;120.78;65.65;;;23.10;88.00;;;;;;4969489;28;87139;-42
2023/09/17 09:18:16;;;;;;;116.90;64.45;;;23.20;87.20;;;;;;4971527;28;85805;-40
2023/09/17 09:20:42;;;;;;;121.28;66.60;;;23.20;86.90;;;;;;4965963;28;86051;-40
2023/09/17 09:23:07;;;;;;;120.70;67.53;;;23.20;86.40;;;;;;4972582;28;87007;-40
2023/09/17 09:25:34;;;;;;;131.10;75.88;;;23.10;87.90;;;;;;4972806;28;85701;-40
2023/09/17 09:28:01;;;;;;;128.93;72.40;;;23.00;87.30;;;;;;4976455;28;86468;-43
2023/09/17 09:30:27;;;;;;;139.90;80.35;;;22.80;87.70;;;;;;4964749;28;85100;-44
2023/09/17 09:32:53;;;;;;;138.75;78.95;;;22.60;88.10;;;;;;4968015;28;87632;-44
2023/09/17 09:35:19;;;;;;;140.88;78.68;;;22.70;90.20;;;;;;4969206;28;87643;-46
2023/09/17 09:37:45;;;;;;;141.90;81.57;;;22.80;90.30;;;;;;4968946;28;85183;-44
2023/09/17 09:40:14;;;;;;;143.63;83.72;;;22.80;90.00;;;;;;4972840;28;85526;-45
2023/09/17 09:42:42;;;;;;;145.32;85.80;;;22.90;88.30;;;;;;4969308;28;86650;-45
2023/09/17 09:45:13;;;;;;;139.55;82.88;;;23.00;88.20;;;;;;4972855;28;85572;-47
2023/09/17 09:47:39;;;;;;;145.63;83.32;;;22.90;88.80;;;;;;4965537;28;88593;-44
2023/09/17 09:50:05;;;;;;;144.95;86.05;;;23.00;88.50;;;;;;4956320;28;85376;-47
2023/09/17 09:52:31;;;;;;;151.88;88.82;;;23.20;87.50;;;;;;4972730;28;85661;-43
2023/09/17 09:54:58;;;;;;;152.30;88.50;;;23.10;87.60;;;;;;4971448;28;85600;-42
2023/09/17 09:57:25;;;;;;;146.75;86.75;;;22.90;87.90;;;;;;4976971;28;88232;-45
2023/09/17 09:59:51;;;;;;;148.30;87.88;;;23.00;89.40;;;;;;4967407;28;86300;-43
2023/09/17 10:02:20;;;;;;;154.85;91.15;;;22.90;87.80;;;;;;4968095;28;89307;-43
2023/09/17 10:04:46;;;;;;;147.50;88.07;;;22.70;89.40;;;;;;4967066;28;86603;-48
2023/09/17 10:07:16;;;;;;;146.18;85.00;;;22.70;88.90;;;;;;4973982;28;85225;-47
2023/09/17 10:09:42;;;;;;;147.75;88.85;;;22.60;90.10;;;;;;4969426;28;88158;-42
2023/09/17 10:12:08;;;;;;;149.30;87.47;;;22.70;91.30;;;;;;4971565;28;86289;-45
2023/09/17 10:14:37;;;;;;;145.27;86.28;;;23.00;90.10;;;;;;4973035;28;86449;-45
2023/09/17 10:17:06;;;;;;;138.88;82.32;;;23.20;89.20;;;;;;4964119;28;85351;-45
2023/09/17 10:19:34;;;;;;;137.88;82.75;;;23.40;87.60;;;;;;4971023;28;85550;-46
2023/09/17 10:22:03;;;;;;;132.18;77.28;;;23.50;86.10;;;;;;4966546;28;85155;-46
2023/09/17 10:24:30;;;;;;;127.97;76.22;;;23.50;86.20;;;;;;4971446;28;85354;-45
2023/09/17 10:26:59;;;;;;;127.85;76.10;;;23.40;86.00;;;;;;4961697;28;88733;-48
2023/09/17 10:29:26;;;;;;;121.90;70.18;;;23.50;86.60;;;;;;4968861;28;85814;-48
2023/09/17 10:31:53;;;;;;;123.95;70.38;;;23.60;87.30;;;;;;4966407;28;85252;-44
2023/09/17 10:34:19;;;;;;;120.82;68.40;;;23.50;86.80;;;;;;4961525;28;87816;-43
2023/09/17 10:36:47;;;;;;;123.97;68.75;;;23.50;85.90;;;;;;4961750;28;88162;-50
2023/09/17 10:39:15;;;;;;;124.38;68.43;;;23.60;85.00;;;;;;4964313;28;86669;-40
2023/09/17 10:41:41;;;;;;;121.82;68.13;;;23.60;85.90;;;;;;4966556;28;85587;-41
2023/09/17 10:44:08;;;;;;;120.40;67.25;;;23.70;85.90;;;;;;4969431;28;85170;-42
2023/09/17 10:46:38;;;;;;;118.18;66.18;;;23.70;85.70;;;;;;4967592;28;87110;-41
2023/09/17 10:49:05;;;;;;;117.38;65.40;;;23.80;84.90;;;;;;4974418;28;85630;-42
2023/09/17 10:51:33;;;;;;;120.57;65.38;;;23.90;85.30;;;;;;4972449;28;85574;-41
2023/09/17 10:53:58;;;;;;;120.10;66.45;;;23.90;85.00;;;;;;4968614;28;85415;-41
2023/09/17 10:56:25;;;;;;;121.05;66.55;;;23.90;85.80;;;;;;4967807;28;85548;-42
2023/09/17 10:58:52;;;;;;;119.28;67.57;;;23.90;84.30;;;;;;4948446;28;85287;-43
2023/09/17 11:01:20;;;;;;;120.03;68.05;;;23.90;84.30;;;;;;4963560;28;92498;-40
2023/09/17 11:03:52;;;;;;;123.50;69.63;;;24.00;83.90;;;;;;4971926;28;85145;-42
2023/09/17 11:06:23;;;;;;;119.22;65.70;;;23.90;82.60;;;;;;4936328;28;85645;-41
2023/09/17 11:08:50;;;;;;;;;;;23.80;84.50;;;;;;4968533;28;85636;-40
2023/09/17 11:11:17;;;;;;;121.18;66.38;;;23.70;85.20;;;;;;4976237;28;84498;-40
2023/09/17 11:13:46;;;;;;;120.80;66.75;;;23.80;85.00;;;;;;4964582;28;85387;-42
2023/09/17 11:16:14;;;;;;;119.78;66.85;;;23.80;84.90;;;;;;4970414;28;85750;-42
2023/09/17 11:18:40;;;;;;;118.72;66.07;;;23.80;85.70;;;;;;4964828;28;86660;-42
2023/09/17 11:21:07;;;;;;;120.18;66.78;;;23.60;87.10;;;;;;4967188;28;85070;-40
2023/09/17 11:23:37;;;;;;;119.22;66.72;;;23.60;87.40;;;;;;4974002;28;86063;-41
2023/09/17 11:26:02;;;;;;;118.43;66.93;;;23.50;87.10;;;;;;4968758;28;86471;-40
2023/09/17 11:28:36;;;;;;;117.57;65.93;;;23.60;87.40;;;;;;4969375;28;85250;-44
2023/09/17 11:31:03;;;;;;;121.15;66.35;;;23.50;87.60;;;;;;4969691;28;86499;-41
2023/09/17 11:33:29;;;;;;;116.43;64.05;;;23.50;87.50;;;;;;4969303;28;85752;-43
2023/09/17 11:35:56;;;;;;;115.95;64.72;;;23.60;88.20;;;;;;4958205;28;88100;-40
2023/09/17 11:38:26;;;;;;;118.97;66.28;;;23.70;87.60;;;;;;4968633;28;85276;-43
2023/09/17 11:41:09;;;;;;;117.40;65.43;;;23.80;85.10;;;;;;4966764;28;86256;-43
2023/09/17 11:43:42;;;;;;;118.18;65.72;;;23.80;85.40;;;;;;4971551;28;85615;-41
2023/09/17 11:46:08;;;;;;;119.07;65.38;;;23.80;86.70;;;;;;4970440;28;85697;-42
2023/09/17 11:48:38;;;;;;;125.28;65.65;;;23.90;87.60;;;;;;4964327;28;85910;-49
2023/09/17 11:51:26;;;;;;;117.53;66.25;;;24.00;87.20;;;;;;4963352;28;89537;-45
2023/09/17 11:54:01;;;;;;;119.38;65.38;;;24.10;86.10;;;;;;4973343;28;85825;-45
2023/09/17 11:56:29;;;;;;;120.57;64.90;;;24.10;85.40;;;;;;4974602;28;89652;-42
2023/09/17 11:58:59;;;;;;;119.40;64.30;;;24.10;86.10;;;;;;4938460;28;85872;-43
2023/09/17 12:01:28;;;;;;;120.03;65.03;;;24.10;86.90;;;;;;4970124;28;85478;-41
2023/09/17 12:03:55;;;;;;;119.07;64.78;;;24.10;87.20;;;;;;4967696;28;85105;-43
2023/09/17 12:06:21;;;;;;;116.18;64.30;;;24.10;85.40;;;;;;4954736;28;89652;-48
2023/09/17 12:08:47;;;;;;;119.88;63.65;;;24.10;84.90;;;;;;4963779;28;90683;-47
2023/09/17 12:11:21;;;;;;;115.47;63.90;;;24.10;85.10;;;;;;4970515;28;90042;-47
2023/09/17 12:13:56;;;;;;;120.68;65.07;;;24.20;86.00;;;;;;4972585;28;90269;-44
2023/09/17 12:16:26;;;;;;;115.85;65.05;;;24.20;85.00;;;;;;4968242;28;91731;-46
2023/09/17 12:18:54;;;;;;;116.55;64.03;;;24.20;84.60;;;;;;4971863;28;90074;-44